createdAt,value
2023-02-11T00:00:03.867Z,11.6
2023-02-11T00:02:04.983Z,9.8
2023-02-11T00:04:05.421Z,11.2
2023-02-11T00:06:05.330Z,9.4
2023-02-11T00:08:02.771Z,12.1
2023-02-11T00:10:03.978Z,10.7
2023-02-11T00:12:02.534Z,12.7
2023-02-11T00:14:05.483Z,10.0
2023-02-11T00:16:08.145Z,10.4
2023-02-11T00:18:02.754Z,10.5
2023-02-11T00:20:03.261Z,12.8
2023-02-11T00:22:02.576Z,12.4
2023-02-11T00:24:02.585Z,10.3
2023-02-11T00:26:03.175Z,11.9
2023-02-11T00:28:02.792Z,8.9
2023-02-11T00:30:04.899Z,12.0
2023-02-11T00:32:05.010Z,9.2
2023-02-11T00:34:02.650Z,10.9
2023-02-11T00:36:06.389Z,9.3
2023-02-11T00:38:03.632Z,10.0
2023-02-11T00:40:05.042Z,8.9
2023-02-11T00:42:02.757Z,9.1
2023-02-11T00:44:03.884Z,11.0
2023-02-11T00:46:02.928Z,10.8
2023-02-11T00:48:02.594Z,11.2
2023-02-11T00:50:05.181Z,8.5
2023-02-11T00:52:03.257Z,9.6
2023-02-11T00:54:03.554Z,12.0
2023-02-11T00:56:03.326Z,11.5
2023-02-11T00:58:02.667Z,9.3
2023-02-11T01:00:03.887Z,11.4
2023-02-11T01:02:02.794Z,10.7
2023-02-11T01:04:02.564Z,9.1
2023-02-11T01:06:03.342Z,13.0
2023-02-11T01:08:03.343Z,11.6
2023-02-11T01:10:03.947Z,10.1
2023-02-11T01:12:02.747Z,10.5
2023-02-11T01:14:03.606Z,8.7
2023-02-11T01:16:03.246Z,8.5
2023-02-11T01:18:04.374Z,12.1
2023-02-11T01:20:04.568Z,10.6
2023-02-11T01:22:02.600Z,10.0
2023-02-11T01:24:02.867Z,10.8
2023-02-11T01:26:03.874Z,10.5
2023-02-11T01:28:02.699Z,10.1
2023-02-11T01:30:05.432Z,11.2
2023-02-11T01:32:02.750Z,9.6
2023-02-11T01:34:03.338Z,8.8
2023-02-11T01:36:04.512Z,7.7
2023-02-11T01:38:02.770Z,8.1
2023-02-11T01:40:02.641Z,12.7
2023-02-11T01:42:03.463Z,11.4
2023-02-11T01:44:21.831Z,8.6
2023-02-11T01:46:17.968Z,8.6
2023-02-11T01:48:03.144Z,6.8
2023-02-11T01:50:04.517Z,9.5
2023-02-11T01:52:06.942Z,12.9
2023-02-11T01:54:13.327Z,11.7
2023-02-11T01:56:14.184Z,10.2
2023-02-11T01:58:05.457Z,9.6
2023-02-11T02:00:10.372Z,11.6
2023-02-11T02:02:09.642Z,12.6
2023-02-11T02:04:04.944Z,8.2
2023-02-11T02:06:10.961Z,10.4
2023-02-11T02:08:12.078Z,11.5
2023-02-11T02:10:07.900Z,12.8
2023-02-11T02:12:02.570Z,12.8
2023-02-11T02:14:03.693Z,13.6
2023-02-11T02:16:09.215Z,15.8
2023-02-11T02:18:21.640Z,15.8
2023-02-11T02:20:21.600Z,11.2
2023-02-11T02:22:21.625Z,14.4
2023-02-11T02:24:21.637Z,12.7
2023-02-11T02:26:21.143Z,14.5
2023-02-11T02:28:17.891Z,15.5
2023-02-11T02:30:21.798Z,14.8
2023-02-11T02:32:21.491Z,15.5
2023-02-11T02:34:09.639Z,15.5
2023-02-11T02:36:14.223Z,14.0
2023-02-11T02:38:09.113Z,16.0
2023-02-11T02:40:09.504Z,15.7
2023-02-11T02:42:05.269Z,13.6
2023-02-11T02:44:03.057Z,12.6
2023-02-11T02:46:14.046Z,11.7
2023-02-11T02:48:03.600Z,13.8
2023-02-11T02:50:04.490Z,13.3
2023-02-11T02:52:15.778Z,11.7
2023-02-11T02:54:21.605Z,11.3
2023-02-11T02:56:09.692Z,12.1
2023-02-11T02:58:21.768Z,10.2
2023-02-11T03:00:15.067Z,12.7
2023-02-11T03:02:11.215Z,13.6
2023-02-11T03:04:10.779Z,9.2
2023-02-11T03:06:08.218Z,9.6
2023-02-11T03:08:09.790Z,9.5
2023-02-11T03:10:11.218Z,10.8
2023-02-11T03:12:04.546Z,12.2
2023-02-11T03:14:08.077Z,12.1
2023-02-11T03:16:09.274Z,10.7
2023-02-11T03:18:05.883Z,9.4
2023-02-11T03:20:04.737Z,8.7
2023-02-11T03:22:09.360Z,10.8
2023-02-11T03:24:07.466Z,8.3
2023-02-11T03:26:09.346Z,10.5
2023-02-11T03:28:10.635Z,9.2
2023-02-11T03:30:12.775Z,11.0
2023-02-11T03:32:11.912Z,10.9
2023-02-11T03:34:10.033Z,11.4
2023-02-11T03:36:06.362Z,13.4
2023-02-11T03:38:08.424Z,10.9
2023-02-11T03:40:06.253Z,10.4
2023-02-11T03:42:06.104Z,9.5
2023-02-11T03:44:03.643Z,8.7
2023-02-11T03:46:03.921Z,10.8
2023-02-11T03:48:07.879Z,12.3
2023-02-11T03:50:06.824Z,10.4
2023-02-11T03:52:05.877Z,13.1
2023-02-11T03:54:06.983Z,13.5
2023-02-11T03:56:07.447Z,9.9
2023-02-11T03:58:03.390Z,9.5
2023-02-11T04:00:02.924Z,10.6
2023-02-11T04:02:02.827Z,11.8
2023-02-11T04:04:02.587Z,10.6
2023-02-11T04:06:02.831Z,12.6
2023-02-11T04:08:02.974Z,12.6
2023-02-11T04:10:02.610Z,12.4
2023-02-11T04:12:03.763Z,12.6
2023-02-11T04:14:02.646Z,9.2
2023-02-11T04:16:02.649Z,11.7
2023-02-11T04:18:03.231Z,12.2
2023-02-11T04:20:03.661Z,13.3
2023-02-11T04:22:03.934Z,11.1
2023-02-11T04:24:02.733Z,12.8
2023-02-11T04:26:03.365Z,11.6
2023-02-11T04:28:02.642Z,12.8
2023-02-11T04:30:02.815Z,14.2
2023-02-11T04:32:02.692Z,10.6
2023-02-11T04:34:02.897Z,13.1
2023-02-11T04:36:03.746Z,14.3
2023-02-11T04:38:02.737Z,10.7
2023-02-11T04:40:02.907Z,11.2
2023-02-11T04:42:03.593Z,14.0
2023-02-11T04:44:03.441Z,10.6
2023-02-11T04:46:03.252Z,11.2
2023-02-11T04:48:04.453Z,10.3
2023-02-11T04:50:02.695Z,12.6
2023-02-11T04:52:02.560Z,11.1
2023-02-11T04:54:02.745Z,11.6
2023-02-11T04:56:03.373Z,14.0
2023-02-11T04:58:02.551Z,14.1
2023-02-11T05:00:03.621Z,10.7
2023-02-11T05:02:04.035Z,11.2
2023-02-11T05:04:02.591Z,11.4
2023-02-11T05:06:04.814Z,12.8
2023-02-11T05:08:02.587Z,12.6
2023-02-11T05:10:02.640Z,10.5
2023-02-11T05:12:02.817Z,13.4
2023-02-11T05:14:02.649Z,13.9
2023-02-11T05:16:03.140Z,13.2
2023-02-11T05:18:02.830Z,14.3
2023-02-11T05:20:02.643Z,12.7
2023-02-11T05:22:03.657Z,15.8
2023-02-11T05:24:03.513Z,15.7
2023-02-11T05:26:04.257Z,10.9
2023-02-11T05:28:04.126Z,9.9
2023-02-11T05:30:03.027Z,17.0
2023-02-11T05:32:02.586Z,13.0
2023-02-11T05:34:03.727Z,14.1
2023-02-11T05:36:05.618Z,13.1
2023-02-11T05:38:02.657Z,11.8
2023-02-11T05:40:03.084Z,13.2
2023-02-11T05:42:02.804Z,13.0
2023-02-11T05:44:02.574Z,12.9
2023-02-11T05:46:04.051Z,13.4
2023-02-11T05:48:02.563Z,16.8
2023-02-11T05:50:02.623Z,14.9
2023-02-11T05:52:02.831Z,16.6
2023-02-11T05:54:03.282Z,15.1
2023-02-11T05:56:02.751Z,15.7
2023-02-11T05:58:03.961Z,14.8
2023-02-11T06:00:04.211Z,16.4
2023-02-11T06:02:02.813Z,15.3
2023-02-11T06:04:03.391Z,14.4
2023-02-11T06:06:02.776Z,12.6
2023-02-11T06:08:03.153Z,16.4
2023-02-11T06:10:02.784Z,13.6
2023-02-11T06:12:02.633Z,15.9
2023-02-11T06:14:02.670Z,14.5
2023-02-11T06:16:03.823Z,15.6
2023-02-11T06:18:03.445Z,16.1
2023-02-11T06:20:05.513Z,20.3
2023-02-11T06:22:02.865Z,11.0
2023-02-11T06:24:02.596Z,11.0
2023-02-11T06:26:04.723Z,11.8
2023-02-11T06:28:03.561Z,11.8
2023-02-11T06:30:03.573Z,17.3
2023-02-11T06:32:02.840Z,14.6
2023-02-11T06:34:02.768Z,13.1
2023-02-11T06:36:04.419Z,15.9
2023-02-11T06:38:03.629Z,11.2
2023-02-11T06:40:02.659Z,14.6
2023-02-11T06:42:02.567Z,13.4
2023-02-11T06:44:02.655Z,16.7
2023-02-11T06:46:03.400Z,17.7
2023-02-11T06:48:02.579Z,19.4
2023-02-11T06:50:04.210Z,16.8
2023-02-11T06:52:03.260Z,15.4
2023-02-11T06:54:05.308Z,14.3
2023-02-11T06:56:04.658Z,16.8
2023-02-11T06:58:03.388Z,13.0
2023-02-11T07:00:02.779Z,15.0
2023-02-11T07:02:02.933Z,15.5
2023-02-11T07:04:02.545Z,14.0
2023-02-11T07:06:04.184Z,19.1
2023-02-11T07:08:02.615Z,17.9
2023-02-11T07:10:04.188Z,14.3
2023-02-11T07:12:02.595Z,17.4
2023-02-11T07:14:05.718Z,15.7
2023-02-11T07:16:04.449Z,15.6
2023-02-11T07:18:03.740Z,18.3
2023-02-11T07:20:03.727Z,15.1
2023-02-11T07:22:02.783Z,13.8
2023-02-11T07:24:08.246Z,15.9
2023-02-11T07:26:04.276Z,12.9
2023-02-11T07:28:04.318Z,13.3
2023-02-11T07:30:04.858Z,13.5
2023-02-11T07:32:02.860Z,16.6
2023-02-11T07:34:03.735Z,14.7
2023-02-11T07:36:03.667Z,13.0
2023-02-11T07:38:02.572Z,16.6
2023-02-11T07:40:03.839Z,13.9
2023-02-11T07:42:04.373Z,16.2
2023-02-11T07:44:03.231Z,15.8
2023-02-11T07:46:05.050Z,12.2
2023-02-11T07:48:02.572Z,14.8
2023-02-11T07:50:02.692Z,13.5
2023-02-11T07:52:03.187Z,14.1
2023-02-11T07:54:03.528Z,11.9
2023-02-11T07:56:03.594Z,14.9
2023-02-11T07:58:02.801Z,16.3
2023-02-11T08:00:02.698Z,15.3
2023-02-11T08:02:02.784Z,13.2
2023-02-11T08:04:04.252Z,12.8
2023-02-11T08:06:04.934Z,14.9
2023-02-11T08:08:02.623Z,13.9
2023-02-11T08:10:03.027Z,19.3
2023-02-11T08:12:02.626Z,18.6
2023-02-11T08:14:03.084Z,15.0
2023-02-11T08:16:04.356Z,14.8
2023-02-11T08:18:02.609Z,12.4
2023-02-11T08:20:03.910Z,14.9
2023-02-11T08:22:02.864Z,17.3
2023-02-11T08:24:03.897Z,14.6
2023-02-11T08:26:03.709Z,21.7
2023-02-11T08:28:02.711Z,26.1
2023-02-11T08:30:02.921Z,24.4
2023-02-11T08:32:03.880Z,25.5
2023-02-11T08:34:03.024Z,24.7
2023-02-11T08:36:09.688Z,20.6
2023-02-11T08:38:02.592Z,22.1
2023-02-11T08:40:02.612Z,22.8
2023-02-11T08:42:03.462Z,18.3
2023-02-11T08:44:03.493Z,18.9
2023-02-11T08:46:03.313Z,22.7
2023-02-11T08:48:02.534Z,20.5
2023-02-11T08:50:02.624Z,19.1
2023-02-11T08:52:03.735Z,27.2
2023-02-11T08:54:03.606Z,27.7
2023-02-11T08:56:04.146Z,25.3
2023-02-11T08:58:03.338Z,27.5
2023-02-11T09:00:02.771Z,27.8
2023-02-11T09:02:02.583Z,25.8
2023-02-11T09:04:03.472Z,20.1
2023-02-11T09:06:06.669Z,18.5
2023-02-11T09:08:02.587Z,19.6
2023-02-11T09:10:02.951Z,14.5
2023-02-11T09:12:02.574Z,15.1
2023-02-11T09:14:04.838Z,16.7
2023-02-11T09:16:04.937Z,14.8
2023-02-11T09:18:03.776Z,15.3
2023-02-11T09:20:03.087Z,14.2
2023-02-11T09:22:02.712Z,13.5
2023-02-11T09:24:02.544Z,13.3
2023-02-11T09:26:09.044Z,14.1
2023-02-11T09:28:02.616Z,15.6
2023-02-11T09:30:02.628Z,13.6
2023-02-11T09:32:02.752Z,17.0
2023-02-11T09:34:05.513Z,15.0
2023-02-11T09:36:04.933Z,13.3
2023-02-11T09:38:02.629Z,13.9
2023-02-11T09:40:02.997Z,18.2
2023-02-11T09:42:16.821Z,13.6
2023-02-11T09:44:06.276Z,15.9
2023-02-11T09:46:04.451Z,17.2
2023-02-11T09:48:06.468Z,16.5
2023-02-11T09:50:06.060Z,13.3
2023-02-11T09:52:07.725Z,17.9
2023-02-11T09:54:12.014Z,16.3
2023-02-11T09:56:11.514Z,18.8
2023-02-11T09:58:05.305Z,16.6
2023-02-11T10:00:14.215Z,17.9
2023-02-11T10:02:15.201Z,22.4
2023-02-11T10:04:10.248Z,18.5
2023-02-11T10:06:19.652Z,18.5
2023-02-11T10:08:15.813Z,16.0
2023-02-11T10:10:13.725Z,23.8
2023-02-11T10:12:13.244Z,20.3
2023-02-11T10:14:12.447Z,22.8
2023-02-11T10:16:09.796Z,19.9
2023-02-11T10:18:18.480Z,20.1
2023-02-11T10:20:17.096Z,18.3
2023-02-11T10:22:12.238Z,17.5
2023-02-11T10:24:10.345Z,19.6
2023-02-11T10:26:03.680Z,21.3
2023-02-11T10:28:13.853Z,17.6
2023-02-11T10:30:10.032Z,20.0
2023-02-11T10:32:07.923Z,20.3
2023-02-11T10:34:07.039Z,19.4
2023-02-11T10:36:04.764Z,21.7
2023-02-11T10:38:03.321Z,19.9
2023-02-11T10:40:02.877Z,19.6
2023-02-11T10:42:08.742Z,17.3
2023-02-11T10:44:06.177Z,16.9
2023-02-11T10:46:05.194Z,12.8
2023-02-11T10:48:05.908Z,16.1
2023-02-11T10:50:18.408Z,16.4
2023-02-11T10:52:18.582Z,17.0
2023-02-11T10:54:19.182Z,15.5
2023-02-11T10:56:04.370Z,15.5
2023-02-11T10:58:03.583Z,16.0
2023-02-11T11:00:15.386Z,15.6
2023-02-11T11:02:07.569Z,15.6
2023-02-11T11:04:02.593Z,12.6
2023-02-11T11:06:06.093Z,9.2
2023-02-11T11:08:06.564Z,13.4
2023-02-11T11:10:05.754Z,15.0
2023-02-11T11:12:02.572Z,14.7
2023-02-11T11:14:03.428Z,13.1
2023-02-11T11:16:17.355Z,18.0
2023-02-11T11:18:22.131Z,17.6
2023-02-11T11:20:21.633Z,15.9
2023-02-11T11:22:02.630Z,15.9
2023-02-11T11:24:04.028Z,16.7
2023-02-11T11:26:07.561Z,17.1
2023-02-11T11:28:02.605Z,17.5
2023-02-11T11:30:03.172Z,15.8
2023-02-11T11:32:06.188Z,17.7
2023-02-11T11:34:15.153Z,17.4
2023-02-11T11:36:07.855Z,17.1
2023-02-11T11:38:05.230Z,20.0
2023-02-11T11:40:09.056Z,13.6
2023-02-11T11:42:05.424Z,17.5
2023-02-11T11:44:14.667Z,18.8
2023-02-11T11:46:05.780Z,14.9
2023-02-11T11:48:10.587Z,15.6
2023-02-11T11:50:21.630Z,16.1
2023-02-11T11:52:12.007Z,19.8
2023-02-11T11:54:07.612Z,18.6
2023-02-11T11:56:06.973Z,21.5
2023-02-11T11:58:02.662Z,22.3
2023-02-11T12:00:03.506Z,19.3
2023-02-11T12:02:21.718Z,18.5
2023-02-11T12:04:21.575Z,15.1
2023-02-11T12:06:12.680Z,19.9
2023-02-11T12:08:17.055Z,20.7
2023-02-11T12:10:21.570Z,18.6
2023-02-11T12:12:20.533Z,17.3
2023-02-11T12:14:15.955Z,23.0
2023-02-11T12:16:13.985Z,18.6
2023-02-11T12:18:14.753Z,22.7
2023-02-11T12:20:23.179Z,24.2
2023-02-11T12:22:10.934Z,19.5
2023-02-11T12:24:20.864Z,21.3
2023-02-11T12:26:12.959Z,21.5
2023-02-11T12:28:14.808Z,17.1
2023-02-11T12:30:13.963Z,18.1
2023-02-11T12:32:12.859Z,14.7
2023-02-11T12:34:21.602Z,16.2
2023-02-11T12:36:09.931Z,16.1
2023-02-11T12:38:20.860Z,16.5
2023-02-11T12:40:15.722Z,12.8
2023-02-11T12:42:27.425Z,17.5
2023-02-11T12:44:02.924Z,15.1
2023-02-11T12:46:11.889Z,14.8
2023-02-11T12:48:13.310Z,18.1
2023-02-11T12:50:13.914Z,14.0
2023-02-11T12:52:17.989Z,14.4
2023-02-11T12:54:17.569Z,13.3
2023-02-11T12:56:11.199Z,15.2
2023-02-11T12:58:04.221Z,13.2
2023-02-11T13:00:08.276Z,15.1
2023-02-11T13:02:14.238Z,12.9
2023-02-11T13:04:10.922Z,17.0
2023-02-11T13:06:06.777Z,15.3
2023-02-11T13:08:09.430Z,17.8
2023-02-11T13:10:09.321Z,17.5
2023-02-11T13:12:15.703Z,30.5
2023-02-11T13:14:09.672Z,34.5
2023-02-11T13:16:06.503Z,35.4
2023-02-11T13:18:12.841Z,43.9
2023-02-11T13:20:15.267Z,39.7
2023-02-11T13:22:09.521Z,33.4
2023-02-11T13:24:15.847Z,31.6
2023-02-11T13:26:09.867Z,28.6
2023-02-11T13:28:19.451Z,32.1
2023-02-11T13:30:23.915Z,23.6
2023-02-11T13:32:12.877Z,24.2
2023-02-11T13:34:03.498Z,29.4
2023-02-11T13:36:15.849Z,28.1
2023-02-11T13:38:04.731Z,28.3
2023-02-11T13:40:06.436Z,25.3
2023-02-11T13:42:04.286Z,21.3
2023-02-11T13:44:06.617Z,21.8
2023-02-11T13:46:05.393Z,19.9
2023-02-11T13:48:07.832Z,19.0
2023-02-11T13:50:07.909Z,20.9
2023-02-11T13:52:05.460Z,21.1
2023-02-11T13:54:04.580Z,30.0
2023-02-11T13:56:09.872Z,25.1
2023-02-11T13:58:21.637Z,21.3
2023-02-11T14:00:17.450Z,19.7
2023-02-11T14:02:14.355Z,21.0
2023-02-11T14:04:30.328Z,21.0
2023-02-11T14:06:23.309Z,23.0
2023-02-11T14:08:24.908Z,17.9
2023-02-11T14:10:02.586Z,22.1
2023-02-11T14:12:21.770Z,20.3
2023-02-11T14:14:13.723Z,22.6
2023-02-11T14:16:07.704Z,19.2
2023-02-11T14:18:03.431Z,17.6
2023-02-11T14:20:13.422Z,19.0
2023-02-11T14:22:04.534Z,20.0
2023-02-11T14:24:21.666Z,23.7
2023-02-11T14:26:21.672Z,19.9
2023-02-11T14:28:18.032Z,19.9
2023-02-11T14:30:14.761Z,21.1
2023-02-11T14:32:09.439Z,19.6
2023-02-11T14:34:18.279Z,18.5
2023-02-11T14:36:12.596Z,22.4
2023-02-11T14:38:15.434Z,19.3
2023-02-11T14:40:17.405Z,21.5
2023-02-11T14:42:04.250Z,21.2
2023-02-11T14:44:07.773Z,17.9
2023-02-11T14:46:03.347Z,20.0
2023-02-11T14:48:07.823Z,19.6
2023-02-11T14:50:03.756Z,21.2
2023-02-11T14:52:13.872Z,16.1
2023-02-11T14:54:12.539Z,20.5
2023-02-11T14:56:02.868Z,21.8
2023-02-11T14:58:13.661Z,19.2
2023-02-11T15:00:14.212Z,20.6
2023-02-11T15:02:02.792Z,20.6
2023-02-11T15:04:04.983Z,18.1
2023-02-11T15:06:07.573Z,19.7
2023-02-11T15:08:05.084Z,19.7
2023-02-11T15:10:02.752Z,18.8
2023-02-11T15:12:03.346Z,21.9
2023-02-11T15:14:16.979Z,25.3
2023-02-11T15:16:08.123Z,25.3
2023-02-11T15:18:04.902Z,20.8
2023-02-11T15:20:03.742Z,24.1
2023-02-11T15:22:05.879Z,20.8
2023-02-11T15:24:05.889Z,19.8
2023-02-11T15:26:12.350Z,22.9
2023-02-11T15:28:21.053Z,19.1
2023-02-11T15:30:02.602Z,19.1
2023-02-11T15:32:13.245Z,19.3
2023-02-11T15:34:08.762Z,18.1
2023-02-11T15:36:03.631Z,18.9
2023-02-11T15:38:04.455Z,20.1
2023-02-11T15:40:15.353Z,20.3
2023-02-11T15:42:20.644Z,21.6
2023-02-11T15:44:02.793Z,18.9
2023-02-11T15:46:03.208Z,20.3
2023-02-11T15:48:08.801Z,23.2
2023-02-11T15:50:03.130Z,19.3
2023-02-11T15:52:03.321Z,21.4
2023-02-11T15:54:06.078Z,16.3
2023-02-11T15:56:09.862Z,21.7
2023-02-11T15:58:03.195Z,20.2
2023-02-11T16:00:06.768Z,20.0
2023-02-11T16:02:10.195Z,18.8
2023-02-11T16:04:03.622Z,24.1
2023-02-11T16:06:20.602Z,21.5
2023-02-11T16:08:19.269Z,21.2
2023-02-11T16:10:02.715Z,22.9
2023-02-11T16:12:07.027Z,21.3
2023-02-11T16:14:13.076Z,20.5
2023-02-11T16:16:05.165Z,24.2
2023-02-11T16:18:13.012Z,17.9
2023-02-11T16:20:03.049Z,21.1
2023-02-11T16:22:10.036Z,20.8
2023-02-11T16:24:04.271Z,20.2
2023-02-11T16:26:06.649Z,20.5
2023-02-11T16:28:03.383Z,21.4
2023-02-11T16:30:03.239Z,17.6
2023-02-11T16:32:08.350Z,16.8
2023-02-11T16:34:02.654Z,19.2
2023-02-11T16:36:11.820Z,21.3
2023-02-11T16:38:02.769Z,20.4
2023-02-11T16:40:02.556Z,18.1
2023-02-11T16:42:07.359Z,20.4
2023-02-11T16:44:03.250Z,21.0
2023-02-11T16:46:02.953Z,21.7
2023-02-11T16:48:02.622Z,19.5
2023-02-11T16:50:04.148Z,18.8
2023-02-11T16:52:08.100Z,19.7
2023-02-11T16:54:02.765Z,17.8
2023-02-11T16:56:03.211Z,18.0
2023-02-11T16:58:02.533Z,22.3
2023-02-11T17:00:02.581Z,18.5
2023-02-11T17:02:02.860Z,18.2
2023-02-11T17:04:03.600Z,14.8
2023-02-11T17:06:05.334Z,21.3
2023-02-11T17:08:03.340Z,17.3
2023-02-11T17:10:02.593Z,16.6
2023-02-11T17:12:02.556Z,19.3
2023-02-11T17:14:02.803Z,17.7
2023-02-11T17:16:03.467Z,14.6
2023-02-11T17:18:03.938Z,15.8
2023-02-11T17:20:02.936Z,14.1
2023-02-11T17:22:03.589Z,15.9
2023-02-11T17:24:03.175Z,20.4
2023-02-11T17:26:03.739Z,15.4
2023-02-11T17:28:02.625Z,14.6
2023-02-11T17:30:02.897Z,13.6
2023-02-11T17:32:02.780Z,17.4
2023-02-11T17:34:03.359Z,17.1
2023-02-11T17:36:06.740Z,13.4
2023-02-11T17:38:02.830Z,14.9
2023-02-11T17:40:03.145Z,12.6
2023-02-11T17:42:02.805Z,11.8
2023-02-11T17:44:03.669Z,11.8
2023-02-11T17:46:07.284Z,12.3
2023-02-11T17:48:02.686Z,12.7
2023-02-11T17:50:03.589Z,13.1
2023-02-11T17:52:03.566Z,11.4
2023-02-11T17:54:07.445Z,15.3
2023-02-11T17:56:06.072Z,10.7
2023-02-11T17:58:02.789Z,15.2
2023-02-11T18:00:02.605Z,11.6
2023-02-11T18:02:04.565Z,12.1
2023-02-11T18:04:03.280Z,14.3
2023-02-11T18:06:05.446Z,11.6
2023-02-11T18:08:03.787Z,11.1
2023-02-11T18:10:05.243Z,12.6
2023-02-11T18:12:02.622Z,10.1
2023-02-11T18:14:07.279Z,12.5
2023-02-11T18:16:04.263Z,10.1
2023-02-11T18:18:03.371Z,10.7
2023-02-11T18:20:03.577Z,13.8
2023-02-11T18:22:03.934Z,12.3
2023-02-11T18:24:06.846Z,10.2
2023-02-11T18:26:06.906Z,10.6
2023-02-11T18:28:02.669Z,13.2
2023-02-11T18:30:03.867Z,11.8
2023-02-11T18:32:03.182Z,11.9
2023-02-11T18:34:04.186Z,11.1
2023-02-11T18:36:06.125Z,11.5
2023-02-11T18:38:02.766Z,13.6
2023-02-11T18:40:02.557Z,10.5
2023-02-11T18:42:02.821Z,10.0
2023-02-11T18:44:04.139Z,11.8
2023-02-11T18:46:06.983Z,11.2
2023-02-11T18:48:04.823Z,9.2
2023-02-11T18:50:02.793Z,11.6
2023-02-11T18:52:02.613Z,8.8
2023-02-11T18:54:02.874Z,11.6
2023-02-11T18:56:08.083Z,12.3
2023-02-11T18:58:02.702Z,9.7
2023-02-11T19:00:03.700Z,12.7
2023-02-11T19:02:02.811Z,10.2
2023-02-11T19:04:04.915Z,10.8
2023-02-11T19:06:02.752Z,9.7
2023-02-11T19:08:02.760Z,10.5
2023-02-11T19:10:03.752Z,9.5
2023-02-11T19:12:04.279Z,9.9
2023-02-11T19:14:09.684Z,9.9
2023-02-11T19:16:10.156Z,10.2
2023-02-11T19:18:02.764Z,10.2
2023-02-11T19:20:05.651Z,10.2
2023-02-11T19:22:07.842Z,9.2
2023-02-11T19:24:07.330Z,9.3
2023-02-11T19:26:04.226Z,9.3
2023-02-11T19:28:03.632Z,12.0
2023-02-11T19:30:03.881Z,12.9
2023-02-11T19:32:04.073Z,12.0
2023-02-11T19:34:04.201Z,9.9
2023-02-11T19:36:03.616Z,11.2
2023-02-11T19:38:03.049Z,11.8
2023-02-11T19:40:02.546Z,11.4
2023-02-11T19:42:02.808Z,9.0
2023-02-11T19:44:04.079Z,9.0
2023-02-11T19:46:03.838Z,10.1
2023-02-11T19:48:02.554Z,10.3
2023-02-11T19:50:03.573Z,9.3
2023-02-11T19:52:03.098Z,10.5
2023-02-11T19:54:02.863Z,13.7
2023-02-11T19:56:03.468Z,10.5
2023-02-11T19:58:02.773Z,10.2
2023-02-11T20:00:02.759Z,10.5
2023-02-11T20:02:02.814Z,7.8
2023-02-11T20:04:03.635Z,11.5
2023-02-11T20:06:06.173Z,9.5
2023-02-11T20:08:02.651Z,8.9
2023-02-11T20:10:03.125Z,10.4
2023-02-11T20:12:02.544Z,10.4
2023-02-11T20:14:04.106Z,10.0
2023-02-11T20:16:05.925Z,8.0
2023-02-11T20:18:02.891Z,7.5
2023-02-11T20:20:02.620Z,7.6
2023-02-11T20:22:03.371Z,8.5
2023-02-11T20:24:02.607Z,10.5
2023-02-11T20:26:07.799Z,7.3
2023-02-11T20:28:02.605Z,8.7
2023-02-11T20:30:02.878Z,10.1
2023-02-11T20:32:03.195Z,10.5
2023-02-11T20:34:03.564Z,9.4
2023-02-11T20:36:05.688Z,8.9
2023-02-11T20:38:02.979Z,8.2
2023-02-11T20:40:02.596Z,7.9
2023-02-11T20:42:02.603Z,7.5
2023-02-11T20:44:06.260Z,6.3
2023-02-11T20:46:03.558Z,10.0
2023-02-11T20:48:02.641Z,6.9
2023-02-11T20:50:02.807Z,7.2
2023-02-11T20:52:02.631Z,8.1
2023-02-11T20:54:03.626Z,7.3
2023-02-11T20:56:03.729Z,9.5
2023-02-11T20:58:03.177Z,8.1
2023-02-11T21:00:04.147Z,11.4
2023-02-11T21:02:03.633Z,8.2
2023-02-11T21:04:04.721Z,8.9
2023-02-11T21:06:02.816Z,13.1
2023-02-11T21:08:03.057Z,10.7
2023-02-11T21:10:03.176Z,14.2
2023-02-11T21:12:03.440Z,11.5
2023-02-11T21:14:03.612Z,11.2
2023-02-11T21:16:04.081Z,12.0
2023-02-11T21:18:02.583Z,9.2
2023-02-11T21:20:02.834Z,10.7
2023-02-11T21:22:02.626Z,9.5
2023-02-11T21:24:03.556Z,9.0
2023-02-11T21:26:03.373Z,13.4
2023-02-11T21:28:03.261Z,10.2
2023-02-11T21:30:03.022Z,9.6
2023-02-11T21:32:02.708Z,9.5
2023-02-11T21:34:03.900Z,13.4
2023-02-11T21:36:07.341Z,10.4
2023-02-11T21:38:03.473Z,10.6
2023-02-11T21:40:02.607Z,10.3
2023-02-11T21:42:02.799Z,12.7
2023-02-11T21:44:02.758Z,14.0
2023-02-11T21:46:08.744Z,10.2
2023-02-11T21:48:02.559Z,14.6
2023-02-11T21:50:02.778Z,11.5
2023-02-11T21:52:03.649Z,12.8
2023-02-11T21:54:03.351Z,10.9
2023-02-11T21:56:03.407Z,11.4
2023-02-11T21:58:03.492Z,9.4
2023-02-11T22:00:03.073Z,10.7
2023-02-11T22:02:02.813Z,10.1
2023-02-11T22:04:03.341Z,11.9
2023-02-11T22:06:06.066Z,10.4
2023-02-11T22:08:02.591Z,11.4
2023-02-11T22:10:03.789Z,9.9
2023-02-11T22:12:02.535Z,10.6
2023-02-11T22:14:03.604Z,10.0
2023-02-11T22:16:07.412Z,9.3
2023-02-11T22:18:02.647Z,8.2
2023-02-11T22:20:03.154Z,9.9
2023-02-11T22:22:02.560Z,9.8
2023-02-11T22:24:02.672Z,9.2
2023-02-11T22:26:06.882Z,8.1
2023-02-11T22:28:02.589Z,7.9
2023-02-11T22:30:02.687Z,7.7
2023-02-11T22:32:03.297Z,7.1
2023-02-11T22:34:05.383Z,8.8
2023-02-11T22:36:05.541Z,10.1
2023-02-11T22:38:04.089Z,9.8
2023-02-11T22:40:02.578Z,7.4
2023-02-11T22:42:03.349Z,9.8
2023-02-11T22:44:02.574Z,7.6
2023-02-11T22:46:04.167Z,11.0
2023-02-11T22:48:03.157Z,7.1
2023-02-11T22:50:03.143Z,7.9
2023-02-11T22:52:03.159Z,8.3
2023-02-11T22:54:05.016Z,8.1
2023-02-11T22:56:04.690Z,7.1
2023-02-11T22:58:02.555Z,12.2
2023-02-11T23:00:02.684Z,9.0
2023-02-11T23:02:03.739Z,9.1
2023-02-11T23:04:05.030Z,8.0
2023-02-11T23:06:04.043Z,7.7
2023-02-11T23:08:03.271Z,7.8
2023-02-11T23:10:02.756Z,8.8
2023-02-11T23:12:02.580Z,9.0
2023-02-11T23:14:03.669Z,12.4
2023-02-11T23:16:04.634Z,9.5
2023-02-11T23:18:03.157Z,9.0
2023-02-11T23:20:02.940Z,9.4
2023-02-11T23:22:03.160Z,7.9
2023-02-11T23:24:06.242Z,8.1
2023-02-11T23:26:04.223Z,9.0
2023-02-11T23:28:02.610Z,9.6
2023-02-11T23:30:04.245Z,8.6
2023-02-11T23:32:02.694Z,7.8
2023-02-11T23:34:02.557Z,9.0
2023-02-11T23:36:02.738Z,11.2
2023-02-11T23:38:03.609Z,10.9
2023-02-11T23:40:02.643Z,12.3
2023-02-11T23:42:02.804Z,8.2
2023-02-11T23:44:02.783Z,11.5
2023-02-11T23:46:03.977Z,8.9
2023-02-11T23:48:03.083Z,8.9
2023-02-11T23:50:03.565Z,10.1
2023-02-11T23:52:03.172Z,8.2
2023-02-11T23:54:02.825Z,10.8
2023-02-11T23:56:07.652Z,9.0
2023-02-11T23:58:02.547Z,9.0
